»·PEaware :: N707XP KEKA-KFOT

N707XP :: KEKA-KFOT

FLIGHT INFORMATION

Flight Status: Arrived
Operator: Privately registered:
United States
More flights under this callsign
Pilot: Aaron P. (24642)
Aircraft: CESSNA 207 TURBO STATIONAIR
(C207)
More flights by this aircraft type
Origin: KEKA Murray
United States
Destination: KFOT Rohnerville
United States
More flights between these airports :: More routes between these airports
Route: +V27 FOT
File this flight plan on PilotEdge
Remarks: I plan to go missed at KFOT and then will request ILS or LOC RWY 32 into KACV
Altitude:
(Current/Filed)
3,000ft
Speed:
(Current/Filed)
150kts
Departed: 15-May-19 11:08 AM
Arrived: 15-May-19 11:34 AM
Distance/Time
Traveled:
15nm/0:26
Distance/Time
To Go:
Arrived

Flight Plot

Page will automatically refresh every two minutes.


Map Options




Map Legend


Flown Route
Filed Route
Departure Airport
Arrival Airport
Navaid (VOR, NDB)
Fix

Horizontal Profiles

Position Reports

Time Latitude Longitude Heading Altitude Ground
Speed
15-May-19 10:41 40.803624 -124.114985 226 10ft 0kts
15-May-19 10:42 40.803624 -124.114985 226 10ft 0kts
15-May-19 10:43 40.803542 -124.115049 188 10ft 3kts
15-May-19 10:44 40.803412 -124.114082 66 10ft 6kts
15-May-19 10:45 40.802404 -124.112228 135 10ft 11kts
15-May-19 10:46 40.800343 -124.109747 96 10ft 0kts
15-May-19 10:47 40.800343 -124.109747 96 10ft 0kts
15-May-19 10:48 40.800343 -124.109747 96 10ft 0kts
15-May-19 10:49 40.800343 -124.109747 96 10ft 0kts
15-May-19 10:50 40.800343 -124.109747 96 10ft 0kts
15-May-19 10:51 40.800343 -124.109747 96 10ft 0kts
15-May-19 10:52 40.800343 -124.109747 96 10ft 0kts
15-May-19 10:53 40.800343 -124.109747 96 10ft 0kts
15-May-19 10:54 40.800343 -124.109747 96 10ft 0kts
15-May-19 10:55 40.800343 -124.109747 96 10ft 0kts
15-May-19 10:56 40.800343 -124.109747 96 10ft 0kts
15-May-19 10:57 40.800343 -124.109747 96 10ft 0kts
15-May-19 10:58 40.800343 -124.109747 96 10ft 0kts
15-May-19 10:59 40.800343 -124.109747 96 10ft 0kts
15-May-19 11:00 40.800343 -124.109747 96 10ft 0kts
15-May-19 11:01 40.800343 -124.109747 96 10ft 0kts
15-May-19 11:02 40.800343 -124.109747 96 10ft 0kts
15-May-19 11:03 40.800343 -124.109747 96 10ft 0kts
15-May-19 11:04 40.800343 -124.109747 96 10ft 0kts
15-May-19 11:05 40.800343 -124.109747 96 10ft 0kts
15-May-19 11:06 40.800354 -124.109328 62 10ft 6kts
15-May-19 11:07 40.809950 -124.125049 281 556ft 102kts
15-May-19 11:08 40.816773 -124.167095 281 1489ft 119kts
15-May-19 11:09 40.823410 -124.209881 281 2500ft 118kts
15-May-19 11:10 40.818281 -124.247307 191 3466ft 122kts
15-May-19 11:11 40.783893 -124.238721 163 4009ft 136kts
15-May-19 11:12 40.745940 -124.232599 177 4006ft 139kts
15-May-19 11:13 40.707652 -124.233585 175 4004ft 134kts
15-May-19 11:14 40.674595 -124.246744 251 3995ft 145kts
15-May-19 11:15 40.701693 -124.273135 1 3515ft 134kts
15-May-19 11:16 40.732417 -124.295503 300 3007ft 128kts
15-May-19 11:17 40.742313 -124.340037 284 3014ft 125kts
15-May-19 11:18 40.749686 -124.385464 284 3015ft 126kts
15-May-19 11:19 40.770660 -124.399564 62 3011ft 116kts
15-May-19 11:20 40.768717 -124.356679 93 3016ft 117kts
15-May-19 11:21 40.763283 -124.313890 96 3016ft 117kts
15-May-19 11:22 40.737484 -124.287425 146 3015ft 121kts
15-May-19 11:23 40.708855 -124.264790 144 3013ft 117kts
15-May-19 11:24 40.682062 -124.242953 143 3007ft 99kts
15-May-19 11:25 40.659592 -124.224296 144 2665ft 96kts
15-May-19 11:26 40.637199 -124.205629 145 1930ft 93kts
15-May-19 11:27 40.615808 -124.187845 145 1691ft 93kts
15-May-19 11:28 40.593418 -124.169221 145 1689ft 95kts
15-May-19 11:29 40.570908 -124.150514 145 1689ft 95kts
15-May-19 11:30 40.546364 -124.142655 165 1322ft 81kts
15-May-19 11:31 40.538848 -124.122057 38 779ft 75kts
15-May-19 11:32 40.554520 -124.133566 307 396ft 51kts
15-May-19 11:33 40.554457 -124.133573 127 396ft 17kts
15-May-19 11:34 40.554671 -124.131566 37 396ft 0kts

Navigation Log

Ident Type
Flight plan parsing failed, navigation log unavailable